Time;durP1;ratioP1;P1;durP2;ratioP2;P2;SDS_P1;SDS_P2;PMS_P1;PMS_P2;Temp;Humidity;BMP_temperature;BMP_pressure;BME280_temperature;BME280_humidity;BME280_pressure;Samples;Min_cycle;Max_cycle;Signal;HPM_P1;HPM_P2
2022/12/11 00:00:42;;;;;;;11.90;8.75;;;;;;;-3.61;88.85;101626.28;5034092;28;20381;-72
2022/12/11 00:03:08;;;;;;;9.67;7.73;;;;;;;-3.62;88.75;101617.63;5033499;28;20026;-71
2022/12/11 00:05:33;;;;;;;10.07;8.53;;;;;;;-3.59;88.22;101634.88;5034044;28;20025;-72
2022/12/11 00:07:59;;;;;;;13.37;8.87;;;;;;;-3.68;88.33;101620.44;5033897;28;20449;-70
2022/12/11 00:10:25;;;;;;;11.75;8.25;;;;;;;-3.67;87.91;101626.50;5033804;28;20025;-70
2022/12/11 00:12:51;;;;;;;17.03;9.03;;;;;;;-3.62;88.80;101620.22;5033192;28;20037;-70
2022/12/11 00:15:16;;;;;;;18.27;9.80;;;;;;;-3.57;88.34;101630.47;5033414;28;20079;-72
2022/12/11 00:17:42;;;;;;;12.30;8.60;;;;;;;-3.44;88.61;101635.25;5033351;28;20026;-71
2022/12/11 00:20:08;;;;;;;12.03;9.00;;;;;;;-3.45;87.15;101630.94;5033852;28;20037;-72
2022/12/11 00:22:33;;;;;;;12.98;8.40;;;;;;;-3.46;87.73;101620.56;5036763;28;20044;-71
2022/12/11 00:24:59;;;;;;;12.70;9.03;;;;;;;-3.61;88.17;101595.88;5033256;28;20029;-70
2022/12/11 00:27:24;;;;;;;13.83;9.33;;;;;;;-3.47;87.69;101611.91;5033033;28;20384;-71
2022/12/11 00:29:50;;;;;;;9.83;7.73;;;;;;;-3.57;87.49;101597.47;5033171;28;20048;-71
2022/12/11 00:32:15;;;;;;;11.93;8.23;;;;;;;-3.47;87.75;101640.56;5033198;28;20029;-70
2022/12/11 00:34:41;;;;;;;12.33;8.73;;;;;;;-3.51;88.25;101628.50;5032957;28;20112;-71
2022/12/11 00:37:06;;;;;;;10.37;8.50;;;;;;;-3.50;88.08;101630.22;5016378;28;20025;-71
2022/12/11 00:39:31;;;;;;;9.60;8.07;;;;;;;-3.50;87.81;101638.03;5033946;28;20033;-71
2022/12/11 00:41:57;;;;;;;10.50;7.70;;;;;;;-3.51;88.22;101627.66;5015064;28;20025;-70
2022/12/11 00:44:23;;;;;;;10.83;7.83;;;;;;;-3.49;87.30;101634.50;5032839;28;20102;-71
2022/12/11 00:46:48;;;;;;;12.43;8.20;;;;;;;-3.41;88.04;101630.81;5032842;28;20021;-72
2022/12/11 00:49:14;;;;;;;11.30;7.33;;;;;;;-3.43;87.92;101630.88;5033754;28;20025;-70
2022/12/11 00:51:39;;;;;;;10.30;8.20;;;;;;;-3.38;87.40;101628.13;5032848;28;20034;-69
2022/12/11 00:54:05;;;;;;;11.70;8.40;;;;;;;-3.49;87.45;101605.88;5032637;28;20166;-71
2022/12/11 00:56:34;;;;;;;8.73;6.93;;;;;;;-3.38;87.10;101634.16;5032985;28;20109;-70
2022/12/11 00:58:59;;;;;;;12.15;8.40;;;;;;;-3.35;87.48;101634.06;5032923;28;20033;-70
2022/12/11 01:01:25;;;;;;;9.07;7.23;;;;;;;-3.31;87.23;101630.44;5032757;28;20048;-70
2022/12/11 01:03:51;;;;;;;10.23;7.03;;;;;;;-3.31;87.07;101625.25;5032618;28;20457;-72
2022/12/11 01:06:20;;;;;;;11.15;7.93;;;;;;;-3.29;87.34;101617.38;5032609;28;20174;-71
2022/12/11 01:10:22;;;;;;;10.55;7.40;;;;;;;-3.13;87.02;101623.75;5032758;28;20041;-71
2022/12/11 01:11:36;;;;;;;13.85;7.43;;;;;;;-3.11;86.50;101632.38;5016345;28;20017;-72
2022/12/11 01:14:03;;;;;;;8.10;7.15;;;;;;;-3.14;86.56;101632.47;4998697;28;20030;-72
2022/12/11 01:16:29;;;;;;;9.73;7.82;;;;;;;-3.17;86.20;101629.97;5016134;28;20036;-69
2022/12/11 01:18:57;;;;;;;8.82;6.97;;;;;;;-3.24;85.87;101625.88;4982276;28;20065;-71
2022/12/11 01:21:27;;;;;;;10.75;7.60;;;;;;;-3.23;86.98;101628.41;4999290;28;20037;-71
2022/12/11 01:23:55;;;;;;;11.77;7.72;;;;;;;-3.34;86.69;101619.28;5033384;28;20035;-69
2022/12/11 01:26:24;;;;;;;10.05;7.57;;;;;;;-3.30;87.39;101628.69;4998264;28;20083;-71
2022/12/11 01:28:51;;;;;;;8.77;7.78;;;;;;;-3.39;86.39;101626.41;5016634;28;20040;-71
2022/12/11 01:31:19;;;;;;;10.85;8.25;;;;;;;-3.42;87.81;101622.16;4998232;28;20030;-71
2022/12/11 01:33:45;;;;;;;10.60;7.90;;;;;;;-3.39;87.09;101621.19;5031997;28;20060;-71
2022/12/11 01:36:19;;;;;;;7.70;6.60;;;;;;;-3.39;86.51;101626.41;5032089;28;20029;-70
2022/12/11 01:38:46;;;;;;;9.10;7.20;;;;;;;-3.55;86.67;101611.28;5034065;28;20027;-71
2022/12/11 01:41:12;;;;;;;9.98;7.75;;;;;;;-3.54;86.81;101623.41;5015358;28;20128;-72
2022/12/11 01:44:07;;;;;;;10.55;7.57;;;;;;;-3.61;87.03;101621.91;5020223;28;20025;-70
2022/12/11 01:46:35;;;;;;;9.32;6.50;;;;;;;-3.76;87.46;101609.41;5056240;28;20037;-71
2022/12/11 01:49:04;;;;;;;10.40;8.30;;;;;;;-3.76;87.03;101618.09;5055680;28;20049;-70
2022/12/11 01:51:34;;;;;;;;;;;;;;;-3.70;88.00;101624.84;5048943;28;20084;-71
2022/12/11 01:54:06;;;;;;;8.65;7.13;;;;;;;-4.10;87.58;101576.69;5039523;28;19931;-70
2022/12/11 01:56:34;;;;;;;11.02;8.25;;;;;;;-4.00;88.06;101613.69;5016456;28;20025;-72
2022/12/11 01:59:06;;;;;;;10.98;8.25;;;;;;;-3.95;88.91;101632.59;5032487;28;20029;-68
2022/12/11 02:01:50;;;;;;;14.00;8.02;;;;;;;-4.00;88.52;101624.09;5032006;28;20525;-71
2022/12/11 02:04:17;;;;;;;12.02;7.85;;;;;;;-4.08;89.47;101628.66;5031948;28;20030;-69
2022/12/11 02:06:46;;;;;;;9.45;8.10;;;;;;;-4.20;89.19;101622.09;5031816;28;20033;-70
2022/12/11 02:09:15;;;;;;;10.27;8.13;;;;;;;-4.15;90.12;101625.41;5031475;28;20064;-71
2022/12/11 02:11:59;;;;;;;10.18;7.68;;;;;;;-4.08;89.91;101626.91;5014193;28;20355;-72
2022/12/11 02:14:25;;;;;;;10.05;7.63;;;;;;;-4.00;89.67;101638.84;5031852;28;20095;-72
2022/12/11 02:17:17;;;;;;;12.73;8.10;;;;;;;-3.96;89.75;101630.91;5032123;28;20473;-69
2022/12/11 02:19:55;;;;;;;11.07;7.85;;;;;;;-3.96;89.84;101630.03;5032040;28;20048;-71
2022/12/11 02:22:26;;;;;;;;;;;;;;;-3.92;89.23;101631.63;5032228;28;20038;-70
2022/12/11 02:25:24;;;;;;;11.52;8.13;;;;;;;-3.87;89.92;101632.34;5014996;28;19917;-68
2022/12/11 02:28:03;;;;;;;10.95;7.50;;;;;;;-3.89;88.91;101623.72;5035724;28;20103;-71
2022/12/11 02:30:30;;;;;;;10.88;7.90;;;;;;;-3.90;89.28;101632.44;5035866;28;20021;-70
2022/12/11 02:32:57;;;;;;;9.68;8.27;;;;;;;-3.96;89.48;101624.84;5036031;28;20385;-71
2022/12/11 02:35:34;;;;;;;13.13;8.05;;;;;;;-3.96;89.02;101630.03;5035416;28;20033;-71
2022/12/11 02:38:04;;;;;;;9.60;7.80;;;;;;;-3.87;89.37;101630.59;5035308;28;20041;-70
2022/12/11 02:40:33;;;;;;;12.68;8.40;;;;;;;-3.85;89.71;101618.38;5035724;28;20028;-70
2022/12/11 02:43:03;;;;;;;12.70;8.32;;;;;;;-3.84;89.63;101627.88;5035482;28;20121;-69
2022/12/11 02:45:31;;;;;;;12.32;8.85;;;;;;;-3.94;89.25;101616.06;5017446;28;20029;-70
2022/12/11 02:48:00;;;;;;;12.02;8.55;;;;;;;-3.88;89.35;101623.69;5017543;28;20411;-71
2022/12/11 02:50:26;;;;;;;;;;;;;;;-3.77;89.92;101625.91;5041001;28;20507;-70
2022/12/11 02:52:55;;;;;;;15.13;8.75;;;;;;;-3.89;89.73;101621.13;5040316;28;20276;-71
2022/12/11 02:55:22;;;;;;;10.50;8.85;;;;;;;-3.94;89.35;101629.09;5038305;28;20045;-69
2022/12/11 02:57:53;;;;;;;11.52;7.78;;;;;;;-3.98;90.01;101631.84;5036063;28;20362;-70
2022/12/11 03:00:18;;;;;;;11.55;8.38;;;;;;;-4.04;89.40;101629.44;5019596;28;20465;-69
2022/12/11 03:02:44;;;;;;;11.97;8.00;;;;;;;-4.01;89.46;101638.00;5034962;28;20084;-69
2022/12/11 03:05:12;;;;;;;10.80;8.45;;;;;;;-4.03;89.83;101628.53;5034864;28;20060;-71
2022/12/11 03:07:40;;;;;;;11.98;8.23;;;;;;;-4.13;89.91;101634.00;5017016;28;20487;-69
2022/12/11 03:10:08;;;;;;;11.90;8.82;;;;;;;-4.16;90.50;101633.25;5034803;28;20358;-70
2022/12/11 03:12:37;;;;;;;10.65;8.23;;;;;;;-4.24;90.79;101627.44;5035366;28;20029;-71
2022/12/11 03:15:07;;;;;;;11.25;8.88;;;;;;;-4.22;90.31;101636.06;5044154;28;20052;-70
2022/12/11 03:17:35;;;;;;;11.68;8.13;;;;;;;-4.20;91.05;101642.06;5045141;28;20026;-70
2022/12/11 03:20:08;;;;;;;11.93;8.75;;;;;;;-4.17;90.64;101637.63;5044807;28;20064;-69
2022/12/11 03:22:59;;;;;;;11.30;7.93;;;;;;;-4.11;91.22;101629.59;5038197;28;20424;-69
2022/12/11 03:25:38;;;;;;;13.57;9.20;;;;;;;-4.12;89.89;101617.50;5034666;28;20040;-70
2022/12/11 03:28:15;;;;;;;11.27;7.75;;;;;;;-4.15;90.29;101617.59;5034525;28;20044;-70
2022/12/11 03:30:42;;;;;;;13.18;8.15;;;;;;;-4.18;90.19;101633.31;5034219;28;20029;-71
2022/12/11 03:33:14;;;;;;;12.10;8.07;;;;;;;-4.17;90.63;101636.75;5034550;28;20068;-71
2022/12/11 03:35:55;;;;;;;12.23;8.52;;;;;;;-4.18;91.02;101640.25;5034347;28;20025;-71
2022/12/11 03:38:30;;;;;;;10.25;8.52;;;;;;;-4.29;90.76;101624.16;5033228;28;20059;-71
2022/12/11 03:41:00;;;;;;;14.05;8.65;;;;;;;-4.32;90.53;101637.25;5033984;28;20151;-70
2022/12/11 03:43:28;;;;;;;13.52;8.30;;;;;;;-4.31;90.84;101634.59;5034182;28;20038;-71
2022/12/11 03:45:54;;;;;;;12.02;8.65;;;;;;;-4.38;90.69;101635.66;5034124;28;20026;-72
2022/12/11 03:48:22;;;;;;;11.45;8.63;;;;;;;-4.42;91.87;101632.31;5033934;28;20068;-71
2022/12/11 03:50:48;;;;;;;11.27;9.07;;;;;;;-4.51;91.31;101616.13;5034037;28;20053;-70
2022/12/11 03:53:15;;;;;;;12.93;9.00;;;;;;;-4.51;91.50;101613.53;5034176;28;20123;-71
2022/12/11 03:55:41;;;;;;;12.13;8.32;;;;;;;-4.45;90.80;101618.53;5033809;28;20029;-71
2022/12/11 03:58:06;;;;;;;11.30;8.67;;;;;;;-4.39;90.55;101628.75;5033791;28;20036;-72
2022/12/11 04:00:32;;;;;;;13.80;8.93;;;;;;;-4.35;90.70;101632.97;5016204;28;20021;-69
2022/12/11 04:03:13;;;;;;;12.67;8.37;;;;;;;-4.35;91.02;101643.38;5033937;28;20037;-71
2022/12/11 04:05:44;;;;;;;13.57;9.10;;;;;;;-4.38;91.17;101644.31;5033779;28;20028;-69
2022/12/11 04:08:10;;;;;;;13.07;9.55;;;;;;;-4.38;91.53;101639.09;5033613;28;20532;-69
2022/12/11 04:10:36;;;;;;;12.30;9.17;;;;;;;-4.41;91.57;101648.75;5033920;28;20031;-70
2022/12/11 04:13:02;;;;;;;12.10;8.20;;;;;;;-4.42;91.02;101644.44;5015956;28;20314;-71
2022/12/11 04:15:27;;;;;;;12.93;8.27;;;;;;;-4.46;91.74;101637.66;5033623;28;20022;-70
2022/12/11 04:26:14;;;;;;;12.98;9.32;;;;;;;-4.54;92.41;101640.47;5033295;28;20033;-69
2022/12/11 04:28:40;;;;;;;14.93;9.07;;;;;;;-4.60;92.24;101637.22;5033542;28;20083;-69
2022/12/11 04:31:09;;;;;;;15.27;10.45;;;;;;;-4.61;92.29;101635.50;5032952;28;20084;-70
2022/12/11 04:33:35;;;;;;;13.25;8.75;;;;;;;-4.67;91.48;101642.56;5033315;28;20037;-70
2022/12/11 04:36:00;;;;;;;13.33;8.93;;;;;;;-4.78;92.56;101636.84;5032981;28;20037;-70
2022/12/11 04:38:26;;;;;;;13.20;9.77;;;;;;;-4.77;92.02;101637.69;5033095;28;20024;-70
2022/12/11 04:41:03;;;;;;;13.67;9.67;;;;;;;-4.86;92.57;101635.38;5033105;28;20108;-69
2022/12/11 04:43:29;;;;;;;14.32;9.13;;;;;;;-4.87;93.10;101631.91;5032998;28;20105;-70
2022/12/11 04:46:09;;;;;;;10.97;7.80;;;;;;;-4.73;93.40;101645.34;5033088;28;20072;-70
2022/12/11 04:48:36;;;;;;;12.77;9.15;;;;;;;-4.77;92.70;101641.13;5032644;28;20022;-69
2022/12/11 04:51:02;;;;;;;16.50;9.85;;;;;;;-4.75;92.28;101644.53;5032780;28;20099;-70
2022/12/11 04:53:28;;;;;;;14.82;9.70;;;;;;;-4.77;93.13;101633.34;5032909;28;20030;-71
2022/12/11 04:55:54;;;;;;;13.90;8.70;;;;;;;-4.73;92.83;101647.09;5015034;28;20021;-72
2022/12/11 04:58:19;;;;;;;12.20;8.97;;;;;;;-4.88;92.19;101631.97;5032861;28;20030;-69
2022/12/11 05:00:45;;;;;;;12.53;8.87;;;;;;;-4.93;92.52;101634.66;5032544;28;20271;-71
2022/12/11 05:03:11;;;;;;;13.77;9.37;;;;;;;-4.99;93.23;101645.22;5032626;28;20049;-69
2022/12/11 05:05:36;;;;;;;13.40;9.83;;;;;;;-5.08;93.13;101659.31;5014785;28;20033;-71
2022/12/11 05:08:02;;;;;;;14.30;9.53;;;;;;;-5.19;93.60;101643.19;5032388;28;20025;-70
2022/12/11 05:10:28;;;;;;;14.50;8.63;;;;;;;-5.19;93.47;101660.53;5032233;28;20468;-70
2022/12/11 05:12:53;;;;;;;12.33;9.33;;;;;;;-5.24;94.27;101664.97;5032508;28;20025;-72
2022/12/11 05:15:19;;;;;;;14.33;8.57;;;;;;;-5.32;94.50;101659.97;5032298;28;20163;-70
2022/12/11 05:17:44;;;;;;;12.13;8.43;;;;;;;-5.37;94.39;101654.91;5032457;28;20116;-70
2022/12/11 05:20:11;;;;;;;15.07;9.77;;;;;;;-5.38;95.06;101663.59;5031922;28;20045;-70
2022/12/11 05:22:37;;;;;;;13.73;10.13;;;;;;;-5.35;95.56;101675.63;5032262;28;20029;-70
2022/12/11 05:25:03;;;;;;;16.80;11.55;;;;;;;-5.37;95.30;101670.47;5032254;28;20029;-70
2022/12/11 05:27:29;;;;;;;14.60;10.48;;;;;;;-5.37;95.39;101672.22;5014313;28;20033;-70
2022/12/11 05:29:54;;;;;;;15.77;9.67;;;;;;;-5.34;94.98;101678.19;5014775;28;20084;-69
2022/12/11 05:32:20;;;;;;;13.87;9.10;;;;;;;-5.39;95.28;101669.66;5032141;28;20033;-71
2022/12/11 05:34:45;;;;;;;14.10;9.73;;;;;;;-5.40;94.76;101670.56;5032351;28;20029;-70
2022/12/11 05:37:11;;;;;;;14.93;10.20;;;;;;;-5.47;94.80;101663.81;5031952;28;20034;-70
2022/12/11 05:39:37;;;;;;;14.17;9.77;;;;;;;-5.32;94.74;101689.38;5031866;28;20029;-70
2022/12/11 05:42:03;;;;;;;12.17;8.90;;;;;;;-5.26;94.60;101687.50;5031838;28;20044;-71
2022/12/11 05:44:28;;;;;;;16.30;10.43;;;;;;;-5.27;94.39;101683.22;5032150;28;20469;-70
2022/12/11 05:46:54;;;;;;;16.87;11.43;;;;;;;-5.20;94.06;101706.41;5032061;28;20040;-71
2022/12/11 05:49:20;;;;;;;14.07;9.13;;;;;;;-5.20;94.64;101702.97;5032184;28;20028;-69
2022/12/11 05:51:45;;;;;;;18.93;10.80;;;;;;;-5.09;94.50;101706.13;5032128;28;20465;-70
2022/12/11 05:54:11;;;;;;;17.60;11.23;;;;;;;-5.07;94.22;101712.97;5032437;28;20029;-69
2022/12/11 05:56:37;;;;;;;16.60;9.77;;;;;;;-5.03;94.67;101709.41;5031826;28;20140;-70
2022/12/11 05:59:04;;;;;;;16.87;10.80;;;;;;;-4.97;94.31;101710.13;5032261;28;20029;-69
2022/12/11 06:01:31;;;;;;;15.18;10.25;;;;;;;-4.96;93.95;101717.88;5035691;28;20372;-70
2022/12/11 06:03:58;;;;;;;13.38;8.60;;;;;;;-4.98;93.79;101724.88;5035878;28;20045;-70
2022/12/11 06:06:25;;;;;;;16.60;10.77;;;;;;;-4.95;93.94;101716.13;5035376;28;20029;-72
2022/12/11 06:08:53;;;;;;;13.48;9.40;;;;;;;-4.94;93.79;101721.28;5036339;28;20048;-71
2022/12/11 06:11:19;;;;;;;14.27;9.88;;;;;;;-4.99;94.24;101717.97;5038172;28;20022;-72
2022/12/11 06:13:45;;;;;;;15.02;8.65;;;;;;;-5.00;94.00;101721.47;5045910;28;20129;-68
2022/12/11 06:16:11;;;;;;;15.03;9.53;;;;;;;-5.07;93.92;101719.91;5036138;28;20037;-70
2022/12/11 06:18:39;;;;;;;14.55;9.18;;;;;;;-5.06;93.84;101721.63;5001367;28;20117;-68
2022/12/11 06:21:13;;;;;;;11.77;8.23;;;;;;;-5.06;94.01;101722.47;5018026;28;20488;-70
2022/12/11 06:23:40;;;;;;;15.30;9.93;;;;;;;-5.13;94.30;101720.94;5001713;28;20029;-71
2022/12/11 06:26:06;;;;;;;16.65;10.10;;;;;;;-5.13;94.58;101741.72;5036105;28;20113;-70
2022/12/11 06:28:32;;;;;;;14.65;10.15;;;;;;;-5.23;94.72;101721.19;5035507;28;20029;-69
2022/12/11 06:30:58;;;;;;;14.27;9.87;;;;;;;-5.27;94.29;101722.16;5017881;28;20032;-71
2022/12/11 06:33:24;;;;;;;14.63;9.30;;;;;;;-5.18;95.06;101728.00;5035465;28;20062;-71
2022/12/11 06:35:50;;;;;;;15.13;9.63;;;;;;;-5.21;94.69;101725.44;5035322;28;20409;-66
2022/12/11 06:38:16;;;;;;;12.35;8.60;;;;;;;-5.27;93.94;101727.34;5035359;28;20108;-74
2022/12/11 06:40:42;;;;;;;15.83;9.73;;;;;;;-5.33;94.10;101726.63;5035556;28;20384;-75
2022/12/11 06:43:07;;;;;;;15.17;8.20;;;;;;;-5.42;94.70;101719.06;5035117;28;20112;-72
2022/12/11 06:45:33;;;;;;;12.30;8.20;;;;;;;-5.47;95.29;101731.31;5035187;28;20040;-75
2022/12/11 06:47:59;;;;;;;13.47;10.13;;;;;;;-5.52;94.95;101733.16;5035210;28;20021;-72
2022/12/11 06:50:25;;;;;;;14.60;10.27;;;;;;;-5.49;95.66;101733.09;5035151;28;20025;-69
2022/12/11 06:52:50;;;;;;;17.25;9.77;;;;;;;-5.54;95.53;101716.75;5035571;28;20033;-71
2022/12/11 06:55:16;;;;;;;11.97;9.13;;;;;;;-5.41;95.34;101740.69;5035598;28;20029;-70
2022/12/11 06:57:41;;;;;;;16.13;8.90;;;;;;;-5.50;95.20;101733.97;5035630;28;20025;-70
2022/12/11 07:00:08;;;;;;;11.87;8.87;;;;;;;-5.47;94.78;101749.50;5035914;28;20448;-74
2022/12/11 07:02:33;;;;;;;14.77;10.20;;;;;;;-5.65;95.15;101731.75;5035261;28;20049;-73
2022/12/11 07:04:58;;;;;;;15.20;9.93;;;;;;;-5.61;95.55;101746.34;5017570;28;20120;-74
2022/12/11 07:07:24;;;;;;;13.37;9.80;;;;;;;-5.69;95.56;101745.69;5034886;28;20030;-73
2022/12/11 07:09:49;;;;;;;14.73;9.20;;;;;;;-5.80;96.57;101727.75;5035280;28;20072;-72
2022/12/11 07:12:16;;;;;;;15.23;9.77;;;;;;;-5.75;96.66;101746.69;5033611;28;20036;-73
2022/12/11 07:14:42;;;;;;;17.48;9.93;;;;;;;-5.79;96.87;101738.97;5035156;28;20036;-74
2022/12/11 07:17:07;;;;;;;18.83;10.73;;;;;;;-5.76;97.14;101755.34;5034801;28;20033;-71
2022/12/11 07:19:37;;;;;;;17.23;11.00;;;;;;;-5.79;97.57;101749.34;5035025;28;20048;-76
2022/12/11 07:22:03;;;;;;;18.27;11.20;;;;;;;-5.80;97.21;101752.84;5034557;28;20041;-78
2022/12/11 07:24:29;;;;;;;15.93;10.97;;;;;;;-5.83;97.61;101743.38;5034517;28;20040;-72
2022/12/11 07:26:54;;;;;;;17.43;11.50;;;;;;;-5.70;97.33;101754.34;5034408;28;20029;-74
2022/12/11 07:29:20;;;;;;;16.07;10.07;;;;;;;-5.66;96.95;101751.66;5034410;28;20112;-72
2022/12/11 07:31:45;;;;;;;14.13;8.93;;;;;;;-5.70;97.35;101746.56;5033944;28;20021;-73
2022/12/11 07:34:12;;;;;;;14.83;9.97;;;;;;;-5.63;97.58;101750.72;5035560;28;20123;-74
2022/12/11 07:36:38;;;;;;;18.67;10.10;;;;;;;-5.64;96.71;101756.81;5048026;28;20041;-73
2022/12/11 07:39:04;;;;;;;15.53;9.47;;;;;;;-5.59;96.25;101756.69;5043864;28;20045;-74
2022/12/11 07:41:30;;;;;;;15.47;9.57;;;;;;;-5.55;96.71;101759.19;5001729;28;20029;-75
2022/12/11 07:43:58;;;;;;;18.73;10.77;;;;;;;-5.55;96.82;101756.56;5034508;28;20043;-71
2022/12/11 07:46:26;;;;;;;14.60;9.63;;;;;;;-5.44;96.24;101752.00;5034359;28;20120;-75
2022/12/11 07:48:52;;;;;;;13.88;9.75;;;;;;;-5.44;96.42;101751.16;5034032;28;20489;-73
2022/12/11 07:51:26;;;;;;;18.15;11.32;;;;;;;-5.41;95.34;101762.31;5034288;28;20034;-72
2022/12/11 07:53:53;;;;;;;14.95;11.02;;;;;;;-5.43;95.92;101756.31;5034180;28;20067;-69
2022/12/11 07:56:19;;;;;;;15.82;10.27;;;;;;;-5.42;95.60;101759.75;5033882;28;20025;-72
2022/12/11 07:58:46;;;;;;;18.27;10.88;;;;;;;-5.28;95.73;101769.78;5033732;28;20029;-71
2022/12/11 08:01:20;;;;;;;21.50;12.35;;;;;;;-5.26;94.54;101778.41;5033609;28;20125;-71
2022/12/11 08:03:46;;;;;;;15.85;10.57;;;;;;;-5.22;94.19;101772.22;5016241;28;20052;-70
2022/12/11 08:06:39;;;;;;;15.82;10.68;;;;;;;-5.21;94.86;101779.13;5034153;28;20132;-74
2022/12/11 08:09:08;;;;;;;16.90;10.95;;;;;;;-5.24;94.34;101769.66;5033502;28;20064;-72
2022/12/11 08:11:33;;;;;;;19.00;11.17;;;;;;;-5.28;94.36;101767.19;5015826;28;20492;-72
2022/12/11 08:13:59;;;;;;;21.53;12.53;;;;;;;-5.16;94.21;101777.31;5033258;28;20260;-72
2022/12/11 08:16:31;;;;;;;16.93;11.73;;;;;;;-5.12;93.69;101781.53;5034021;28;20075;-72
2022/12/11 08:19:00;;;;;;;19.63;11.52;;;;;;;-5.08;93.89;101783.16;5033348;28;20140;-71
2022/12/11 08:21:26;;;;;;;;;;;;;;;-4.94;93.91;101791.44;5033796;28;20037;-71
2022/12/11 08:23:53;;;;;;;20.05;13.25;;;;;;;-4.98;92.85;101789.81;5015398;28;19949;-72
2022/12/11 08:26:28;;;;;;;23.38;12.48;;;;;;;-4.92;93.66;101794.84;5033454;28;20398;-72
2022/12/11 08:28:54;;;;;;;20.88;12.18;;;;;;;-4.90;92.84;101798.28;5033188;28;20033;-74
2022/12/11 08:31:21;;;;;;;18.88;12.30;;;;;;;-4.89;93.35;101780.94;5033597;28;20131;-72
2022/12/11 08:33:47;;;;;;;17.27;10.60;;;;;;;-4.87;93.09;101785.22;5033124;28;20036;-74
2022/12/11 08:36:15;;;;;;;12.82;9.65;;;;;;;-4.83;92.24;101786.84;5033148;28;20033;-71
2022/12/11 08:38:41;;;;;;;15.27;10.18;;;;;;;-4.87;91.15;101773.97;5033244;28;20033;-73
2022/12/11 08:41:11;;;;;;;13.17;9.40;;;;;;;-4.73;91.36;101793.50;5032864;28;20037;-72
2022/12/11 08:43:37;;;;;;;14.15;9.80;;;;;;;-4.67;91.59;101803.72;5034867;28;20036;-73
2022/12/11 08:46:03;;;;;;;13.47;8.57;;;;;;;-4.58;90.12;101796.59;5042262;28;20038;-74
2022/12/11 08:48:28;;;;;;;12.70;9.27;;;;;;;-4.55;89.67;101799.09;5034681;28;20033;-71
2022/12/11 08:50:54;;;;;;;16.57;10.60;;;;;;;-4.50;89.48;101795.47;5032556;28;20035;-71
2022/12/11 08:53:19;;;;;;;14.33;8.77;;;;;;;-4.43;88.55;101807.41;5032198;28;20025;-74
2022/12/11 08:55:45;;;;;;;14.57;8.93;;;;;;;-4.36;87.90;101811.53;5032610;28;21148;-73
2022/12/11 08:58:10;;;;;;;13.13;9.47;;;;;;;-4.35;87.08;101809.78;5032638;28;20472;-74
2022/12/11 09:00:36;;;;;;;14.43;9.77;;;;;;;-4.36;86.51;101814.13;5033000;28;20036;-70
2022/12/11 09:03:01;;;;;;;13.73;9.23;;;;;;;-4.33;87.20;101826.25;5032723;28;20035;-71
2022/12/11 09:05:27;;;;;;;14.07;10.03;;;;;;;-4.66;86.10;101775.97;5032785;28;20029;-73
2022/12/11 09:07:54;;;;;;;12.90;9.30;;;;;;;-4.31;86.38;101828.78;5014949;28;20041;-72
2022/12/11 09:10:19;;;;;;;15.10;10.43;;;;;;;-4.22;87.11;101825.94;5032919;28;20038;-69
2022/12/11 09:12:45;;;;;;;14.03;8.13;;;;;;;-4.12;86.19;101828.22;5016379;28;20030;-73
2022/12/11 09:15:11;;;;;;;12.53;9.30;;;;;;;-4.01;85.61;101819.28;5022208;28;20037;-70
2022/12/11 09:17:36;;;;;;;19.83;12.07;;;;;;;-3.90;85.52;101833.66;5039480;28;20381;-72
2022/12/11 09:20:05;;;;;;;15.63;10.17;;;;;;;-3.80;85.41;101836.84;5018257;28;20401;-71
2022/12/11 09:22:32;;;;;;;12.27;8.73;;;;;;;-3.90;84.81;101817.22;5032065;28;20358;-68
2022/12/11 09:24:58;;;;;;;17.02;11.13;;;;;;;-3.86;85.01;101840.50;5032177;28;20037;-71
2022/12/11 09:27:24;;;;;;;16.30;10.27;;;;;;;-3.87;84.75;101838.78;5031962;28;20024;-75
2022/12/11 09:29:50;;;;;;;15.20;10.77;;;;;;;-3.77;84.68;101840.22;4998282;28;20059;-71
2022/12/11 09:32:15;;;;;;;15.73;10.27;;;;;;;-3.82;83.94;101825.63;5032052;28;20017;-71
2022/12/11 09:34:41;;;;;;;16.40;10.77;;;;;;;-3.81;84.51;101824.72;5031111;28;20056;-73
2022/12/11 09:37:06;;;;;;;16.10;10.87;;;;;;;-3.77;84.51;101831.56;5032091;28;20021;-74
2022/12/11 09:39:32;;;;;;;15.33;10.67;;;;;;;-3.80;84.86;101826.44;5013777;28;20421;-73
2022/12/11 09:42:10;;;;;;;14.77;10.90;;;;;;;-3.73;85.07;101833.19;5031719;28;20030;-74
2022/12/11 09:44:47;;;;;;;19.42;10.05;;;;;;;-3.75;84.49;101833.25;5031965;28;20025;-69
2022/12/11 09:47:39;;;;;;;15.48;10.07;;;;;;;-3.82;84.01;101830.84;5032000;28;20042;-72
2022/12/11 09:50:08;;;;;;;12.70;8.82;;;;;;;-3.89;84.42;101826.72;5008391;28;20044;-72
2022/12/11 09:52:39;;;;;;;14.82;9.75;;;;;;;-3.92;84.36;101834.63;5031622;28;20029;-71
2022/12/11 09:55:16;;;;;;;20.50;10.18;;;;;;;-3.95;83.99;101838.16;5031786;28;20057;-72
2022/12/11 09:58:06;;;;;;;16.63;9.57;;;;;;;-3.99;84.42;101846.09;5029521;28;20059;-71
2022/12/11 10:01:00;;;;;;;10.57;7.50;;;;;;;-4.04;84.24;101835.84;5030847;28;20025;-76
2022/12/11 10:03:55;;;;;;;10.15;7.20;;;;;;;-3.98;84.27;101834.81;5009435;28;20030;-74
2022/12/11 10:06:58;;;;;;;11.68;6.85;;;;;;;-3.89;83.78;101839.72;5031805;28;20041;-76
2022/12/11 10:10:10;;;;;;;13.48;8.73;;;;;;;-3.85;83.00;101828.34;5032146;28;20083;-75
2022/12/11 10:12:47;;;;;;;16.17;10.18;;;;;;;-3.90;84.42;101832.81;5029600;28;20052;-76
2022/12/11 10:15:34;;;;;;;12.80;9.23;;;;;;;-3.98;85.11;101834.81;5031050;28;20033;-75
2022/12/11 10:18:01;;;;;;;12.73;8.80;;;;;;;-4.03;85.52;101826.28;5014142;28;20029;-75
2022/12/11 10:20:38;;;;;;;14.60;8.30;;;;;;;-3.94;86.00;101826.00;5033356;28;20046;-76
2022/12/11 10:23:07;;;;;;;12.98;8.77;;;;;;;-3.97;85.65;101828.69;5033121;28;20141;-74
2022/12/11 10:25:38;;;;;;;13.00;8.75;;;;;;;-4.00;85.47;101823.59;5030253;28;20435;-71
2022/12/11 10:28:13;;;;;;;10.88;7.80;;;;;;;-4.02;86.02;101810.63;5031487;28;20427;-77
2022/12/11 10:30:46;;;;;;;16.27;8.48;;;;;;;-3.93;86.43;101818.16;5031486;28;20412;-72
2022/12/11 10:33:36;;;;;;;13.85;8.75;;;;;;;-3.99;86.50;101813.13;5031259;28;20025;-72
2022/12/11 10:36:03;;;;;;;15.45;8.90;;;;;;;-4.02;86.78;101823.63;5033692;28;20022;-74
2022/12/11 10:38:31;;;;;;;16.95;9.80;;;;;;;-4.00;87.38;101816.63;5032330;28;20132;-71
2022/12/11 10:41:19;;;;;;;13.77;10.35;;;;;;;-3.85;87.39;101831.78;5031526;28;20422;-73
2022/12/11 10:43:48;;;;;;;15.20;9.63;;;;;;;-3.84;86.16;101817.03;5030137;28;20036;-74
2022/12/11 10:46:17;;;;;;;14.45;10.20;;;;;;;-3.92;86.46;101819.00;5029279;28;20021;-74
2022/12/11 10:48:52;;;;;;;14.00;10.55;;;;;;;-3.91;87.43;101812.91;5034716;28;20204;-75
2022/12/11 10:51:36;;;;;;;17.42;9.43;;;;;;;-4.03;87.66;101808.06;5016510;28;20472;-79
2022/12/11 10:54:15;;;;;;;13.70;9.63;;;;;;;-4.08;87.96;101803.81;5033205;28;20025;-76
2022/12/11 10:56:48;;;;;;;15.30;9.27;;;;;;;-4.06;88.50;101795.97;5033911;28;20025;-75
2022/12/11 10:59:44;;;;;;;16.17;9.63;;;;;;;-4.10;89.27;101805.63;5031961;28;20040;-74
2022/12/11 11:02:25;;;;;;;14.13;9.18;;;;;;;-4.10;88.58;101790.00;4999581;28;20033;-75
2022/12/11 11:04:52;;;;;;;12.95;9.32;;;;;;;-4.06;88.48;101794.22;5034750;28;20033;-72
2022/12/11 11:07:29;;;;;;;14.23;9.68;;;;;;;-4.09;88.77;101776.09;5034271;28;20033;-74
2022/12/11 11:10:10;;;;;;;16.38;9.48;;;;;;;-3.94;88.33;101800.84;5032449;28;20045;-74
2022/12/11 11:12:45;;;;;;;15.45;9.68;;;;;;;-4.10;88.66;101784.81;5032810;28;20036;-73
2022/12/11 11:15:24;;;;;;;12.27;9.05;;;;;;;-3.96;88.34;101796.56;5032264;28;20036;-72
2022/12/11 11:17:54;;;;;;;15.25;9.50;;;;;;;-3.96;87.90;101789.63;5016624;28;20075;-75
2022/12/11 11:20:25;;;;;;;15.45;9.82;;;;;;;-4.07;88.09;101766.50;5013880;28;20057;-79
2022/12/11 11:23:12;;;;;;;18.20;10.90;;;;;;;-3.78;87.07;101785.59;5013410;28;20490;-74
2022/12/11 11:25:39;;;;;;;14.35;10.00;;;;;;;-3.80;86.51;101797.81;5014500;28;20112;-70
2022/12/11 11:28:20;;;;;;;14.80;10.02;;;;;;;-3.93;86.92;101794.72;5015002;28;20112;-75
2022/12/11 11:31:00;;;;;;;14.55;10.00;;;;;;;-4.04;87.62;101806.38;5015664;28;20029;-72
2022/12/11 11:33:27;;;;;;;19.40;11.77;;;;;;;-4.10;87.61;101784.81;5011577;28;20025;-76
2022/12/11 11:35:56;;;;;;;16.88;10.50;;;;;;;-4.03;88.33;101815.88;5016510;28;20469;-74